»·PEaware :: CFS4699 KBLI-KSEA

CFS4699 :: KBLI-KSEA

FLIGHT INFORMATION

Flight Status: Arrived
Operator: Unknown
More flights by this operator :: More flights under this callsign
Pilot: Shannon N. (33079)
Aircraft: Unknown
(K100)
More flights by this aircraft type
Origin: KBLI Bellingham Intl
United States
Destination: KSEA Seattle-Tacoma Intl
United States
More flights between these airports :: More routes between these airports
Route: KLSHN1 CVV SEA
File this flight plan on PilotEdge
Remarks: RMK / SIMBRIEF
Altitude:
(Current/Filed)
7,000ft
Speed:
(Current/Filed)
175kts
Departed: 10-Nov-23 08:12 PM
Arrived: 10-Nov-23 08:54 PM
Distance/Time
Traveled:
80nm/0:42
Distance/Time
To Go:
Arrived

Flight Plot

Page will automatically refresh every two minutes.

Flight plan parsing failed; only flown route is shown


Map Options




Map Legend


Flown Route
Filed Route
Departure Airport
Arrival Airport
Navaid (VOR, NDB)
Fix

Horizontal Profiles

Position Reports

Time Latitude Longitude Heading Altitude Ground
Speed
10-Nov-23 19:53 48.793317 -122.533300 327 172ft 0kts
10-Nov-23 19:54 48.793317 -122.533300 327 172ft 0kts
10-Nov-23 19:55 48.793317 -122.533300 327 172ft 0kts
10-Nov-23 19:56 48.793317 -122.533300 327 172ft 0kts
10-Nov-23 19:57 48.793317 -122.533300 327 172ft 0kts
10-Nov-23 19:58 48.793317 -122.533300 327 172ft 0kts
10-Nov-23 19:59 48.793317 -122.533300 327 172ft 0kts
10-Nov-23 20:00 48.793317 -122.533300 327 227ft 0kts
10-Nov-23 20:01 48.793317 -122.533300 327 227ft 0kts
10-Nov-23 20:02 48.793317 -122.533300 327 227ft 0kts
10-Nov-23 20:03 48.794001 -122.535054 320 171ft 0kts
10-Nov-23 20:04 48.794087 -122.535254 247 171ft 2kts
10-Nov-23 20:05 48.794083 -122.535323 292 171ft 1kts
10-Nov-23 20:06 48.797605 -122.535853 0 170ft 17kts
10-Nov-23 20:07 48.801441 -122.535742 343 168ft 16kts
10-Nov-23 20:08 48.801733 -122.536283 262 168ft 0kts
10-Nov-23 20:09 48.801733 -122.536283 262 168ft 0kts
10-Nov-23 20:10 48.801730 -122.536296 235 168ft 0kts
10-Nov-23 20:11 48.798383 -122.537578 178 199ft 52kts
10-Nov-23 20:12 48.777661 -122.540169 187 1040ft 82kts
10-Nov-23 20:13 48.756640 -122.546886 186 2405ft 67kts
10-Nov-23 20:14 48.737022 -122.553561 189 3473ft 77kts
10-Nov-23 20:15 48.714953 -122.561159 194 4834ft 84kts
10-Nov-23 20:16 48.691467 -122.569315 198 6155ft 88kts
10-Nov-23 20:18 48.664342 -122.578971 194 6996ft 132kts
10-Nov-23 20:19 48.625967 -122.591857 197 7000ft 142kts
10-Nov-23 20:20 48.586774 -122.605657 198 7112ft 150kts
10-Nov-23 20:21 48.546802 -122.619657 197 7063ft 144kts
10-Nov-23 20:22 48.507810 -122.633235 197 7061ft 143kts
10-Nov-23 20:23 48.469444 -122.646591 197 7027ft 143kts
10-Nov-23 20:24 48.430300 -122.660216 197 7021ft 145kts
10-Nov-23 20:25 48.390967 -122.673865 198 7020ft 144kts
10-Nov-23 20:26 48.351665 -122.687487 198 7019ft 145kts
10-Nov-23 20:27 48.312250 -122.701133 198 7020ft 145kts
10-Nov-23 20:28 48.272858 -122.714728 198 7022ft 145kts
10-Nov-23 20:29 48.232701 -122.718312 168 7019ft 156kts
10-Nov-23 20:30 48.191466 -122.696758 169 7031ft 157kts
10-Nov-23 20:31 48.149754 -122.675111 169 7027ft 159kts
10-Nov-23 20:32 48.108534 -122.649532 161 6873ft 165kts
10-Nov-23 20:33 48.068140 -122.622283 169 6607ft 154kts
10-Nov-23 20:34 48.029854 -122.595743 146 6441ft 157kts
10-Nov-23 20:35 47.993708 -122.565225 162 6346ft 149kts
10-Nov-23 20:36 47.956391 -122.538021 162 6241ft 148kts
10-Nov-23 20:37 47.919291 -122.511011 162 6137ft 149kts
10-Nov-23 20:38 47.881250 -122.483394 162 6036ft 155kts
10-Nov-23 20:39 47.842481 -122.455238 162 5928ft 155kts
10-Nov-23 20:40 47.803518 -122.427029 162 5705ft 157kts
10-Nov-23 20:41 47.764710 -122.398566 159 5006ft 145kts
10-Nov-23 20:42 47.731745 -122.372470 161 4904ft 132kts
10-Nov-23 20:43 47.701326 -122.348289 162 4574ft 112kts
10-Nov-23 20:44 47.675023 -122.327463 163 4298ft 105kts
10-Nov-23 20:45 47.649392 -122.307604 171 4027ft 105kts
10-Nov-23 20:46 47.623525 -122.306284 186 3538ft 86kts
10-Nov-23 20:46 47.603647 -122.306492 185 3152ft 84kts
10-Nov-23 20:48 47.575251 -122.306783 186 2613ft 86kts
10-Nov-23 20:49 47.549887 -122.307022 184 2126ft 96kts
10-Nov-23 20:50 47.522681 -122.307294 183 1653ft 100kts
10-Nov-23 20:51 47.494796 -122.307517 180 1082ft 103kts
10-Nov-23 20:51 47.475533 -122.307603 176 699ft 58kts
10-Nov-23 20:52 47.458604 -122.307811 176 383ft 47kts
10-Nov-23 20:53 47.455338 -122.306392 81 380ft 0kts
10-Nov-23 20:55 47.456501 -122.306198 358 380ft 16kts
10-Nov-23 20:55 47.461200 -122.306104 0 380ft 21kts
10-Nov-23 20:56 47.462118 -122.301017 72 380ft 7kts
10-Nov-23 20:57 47.462533 -122.300809 0 380ft 0kts
10-Nov-23 20:58 47.462533 -122.300809 0 380ft 0kts
10-Nov-23 20:59 47.462533 -122.300809 0 380ft 0kts

Navigation Log

Ident Type
Flight plan parsing failed, navigation log unavailable